createdAt,value
2023-02-11T00:02:14.701Z,-3.67
2023-02-11T00:04:41.490Z,-3.74
2023-02-11T00:07:08.119Z,-3.74
2023-02-11T00:09:34.812Z,-3.75
2023-02-11T00:12:01.539Z,-3.84
2023-02-11T00:14:28.292Z,-3.81
2023-02-11T00:16:55.060Z,-3.94
2023-02-11T00:19:21.994Z,-3.97
2023-02-11T00:21:48.779Z,-3.91
2023-02-11T00:24:15.490Z,-3.94
2023-02-11T00:26:42.202Z,-3.91
2023-02-11T00:29:09.989Z,-3.92
2023-02-11T00:31:37.226Z,-3.97
2023-02-11T00:34:05.311Z,-3.94
2023-02-11T00:36:32.393Z,-3.92
2023-02-11T00:39:03.247Z,-3.93
2023-02-11T00:41:30.614Z,-3.91
2023-02-11T00:43:59.560Z,-3.98
2023-02-11T00:46:26.355Z,-4.04
2023-02-11T00:48:55.122Z,-4.07
2023-02-11T00:51:21.853Z,-4.10
2023-02-11T00:53:48.604Z,-4.17
2023-02-11T00:56:15.458Z,-4.18
2023-02-11T00:58:42.163Z,-4.20
2023-02-11T01:01:10.494Z,-4.17
2023-02-11T01:03:37.263Z,-4.18
2023-02-11T01:06:04.894Z,-4.21
2023-02-11T01:08:31.669Z,-4.13
2023-02-11T01:11:01.592Z,-4.14
2023-02-11T01:13:33.065Z,-4.19
2023-02-11T01:16:02.710Z,-4.26
2023-02-11T01:18:29.467Z,-4.19
2023-02-11T01:20:56.168Z,-4.20
2023-02-11T01:23:23.691Z,-4.24
2023-02-11T01:25:51.030Z,-4.15
2023-02-11T01:28:20.918Z,-4.22
2023-02-11T01:30:47.718Z,-4.24
2023-02-11T01:33:15.019Z,-4.25
2023-02-11T01:35:43.723Z,-4.31
2023-02-11T01:38:17.291Z,-4.38
2023-02-11T01:40:54.623Z,-4.38
2023-02-11T01:43:22.293Z,-4.30
2023-02-11T01:46:12.773Z,-4.31
2023-02-11T01:48:44.219Z,-4.36
2023-02-11T01:51:22.106Z,-4.35
2023-02-11T01:54:10.000Z,-4.45
2023-02-11T01:57:00.489Z,-4.38
2023-02-11T01:59:32.187Z,-4.38
2023-02-11T02:02:04.557Z,-4.45
2023-02-11T02:04:38.469Z,-4.47
2023-02-11T02:07:17.956Z,-4.49
2023-02-11T02:09:52.716Z,-4.51
2023-02-11T02:12:19.526Z,-4.60
2023-02-11T02:14:46.280Z,-4.57
2023-02-11T02:17:29.857Z,-4.48
2023-02-11T02:20:19.344Z,-4.42
2023-02-11T02:23:02.720Z,-4.41
2023-02-11T02:25:59.650Z,-4.43
2023-02-11T02:28:45.108Z,-4.47
2023-02-11T02:31:33.857Z,-4.55
2023-02-11T02:34:13.007Z,-4.52
2023-02-11T02:37:02.343Z,-4.48
2023-02-11T02:39:33.535Z,-4.50
2023-02-11T02:42:00.960Z,-4.41
2023-02-11T02:44:29.114Z,-4.38
2023-02-11T02:46:56.366Z,-4.37
2023-02-11T02:49:23.102Z,-4.51
2023-02-11T02:52:23.561Z,-4.53
2023-02-11T02:54:53.278Z,-4.61
2023-02-11T02:57:45.089Z,-4.51
2023-02-11T03:00:21.200Z,-4.47
2023-02-11T03:03:20.456Z,-4.55
2023-02-11T03:05:50.371Z,-4.49
2023-02-11T03:08:34.939Z,-4.42
2023-02-11T03:11:03.407Z,-4.36
2023-02-11T03:13:35.763Z,-4.36
2023-02-11T03:16:12.195Z,-4.30
2023-02-11T03:18:42.833Z,-4.36
2023-02-11T03:21:11.098Z,-4.48
2023-02-11T03:23:44.571Z,-4.52
2023-02-11T03:26:23.407Z,-4.53
2023-02-11T03:29:27.797Z,-4.56
2023-02-11T03:32:03.683Z,-4.63
2023-02-11T03:34:36.391Z,-4.67
2023-02-11T03:37:13.442Z,-4.71
2023-02-11T03:39:46.434Z,-4.59
2023-02-11T03:42:15.396Z,-4.55
2023-02-11T03:44:59.963Z,-4.53
2023-02-11T03:47:29.562Z,-4.55
2023-02-11T03:49:59.399Z,-4.56
2023-02-11T03:52:29.548Z,-4.58
2023-02-11T03:54:59.373Z,-4.54
2023-02-11T03:57:26.103Z,-4.57
2023-02-11T03:59:58.430Z,-4.59
2023-02-11T04:02:29.551Z,-4.53
2023-02-11T04:04:56.886Z,-4.55
2023-02-11T04:07:23.994Z,-4.49
2023-02-11T04:09:50.765Z,-4.53
2023-02-11T04:12:17.960Z,-4.52
2023-02-11T04:14:44.761Z,-4.54
2023-02-11T04:17:11.989Z,-4.54
2023-02-11T04:19:39.126Z,-4.60
2023-02-11T04:22:05.961Z,-4.50
2023-02-11T04:24:32.752Z,-4.53
2023-02-11T04:26:59.633Z,-4.45
2023-02-11T04:29:26.315Z,-4.51
2023-02-11T04:31:53.046Z,-4.56
2023-02-11T04:34:19.768Z,-4.52
2023-02-11T04:36:46.518Z,-4.50
2023-02-11T04:39:13.325Z,-4.50
2023-02-11T04:41:40.024Z,-4.51
2023-02-11T04:44:06.748Z,-4.53
2023-02-11T04:46:33.439Z,-4.50
2023-02-11T04:49:00.117Z,-4.44
2023-02-11T04:51:26.946Z,-4.55
2023-02-11T04:53:53.636Z,-4.52
2023-02-11T04:56:20.478Z,-4.60
2023-02-11T04:58:47.184Z,-4.55
2023-02-11T05:01:15.884Z,-4.52
2023-02-11T05:03:43.375Z,-4.52
2023-02-11T05:06:11.090Z,-4.56
2023-02-11T05:08:38.230Z,-4.54
2023-02-11T05:11:05.373Z,-4.56
2023-02-11T05:13:32.498Z,-4.46
2023-02-11T05:15:59.428Z,-4.46
2023-02-11T05:18:26.118Z,-4.56
2023-02-11T05:20:52.826Z,-4.54
2023-02-11T05:23:19.539Z,-4.50
2023-02-11T05:25:46.277Z,-4.52
2023-02-11T05:28:13.000Z,-4.57
2023-02-11T05:30:39.814Z,-4.59
2023-02-11T05:33:06.762Z,-4.61
2023-02-11T05:35:35.712Z,-4.60
2023-02-11T05:38:02.372Z,-4.61
2023-02-11T05:40:29.097Z,-4.64
2023-02-11T05:42:55.809Z,-4.65
2023-02-11T05:45:22.637Z,-4.53
2023-02-11T05:47:49.293Z,-4.48
2023-02-11T05:50:16.037Z,-4.55
2023-02-11T05:52:42.778Z,-4.65
2023-02-11T05:55:09.714Z,-4.51
2023-02-11T05:57:36.352Z,-4.38
2023-02-11T06:00:04.793Z,-4.25
2023-02-11T06:02:39.459Z,-4.11
2023-02-11T06:05:06.641Z,-4.12
2023-02-11T06:07:33.407Z,-4.11
2023-02-11T06:10:00.384Z,-4.00
2023-02-11T06:12:27.176Z,-3.93
2023-02-11T06:14:54.157Z,-3.82
2023-02-11T06:17:20.901Z,-3.77
2023-02-11T06:19:47.600Z,-3.73
2023-02-11T06:22:14.280Z,-3.72
2023-02-11T06:24:58.918Z,-3.69
2023-02-11T06:27:26.875Z,-3.59
2023-02-11T06:29:56.541Z,-3.57
2023-02-11T06:32:43.280Z,-3.58
2023-02-11T06:35:12.100Z,-3.56
2023-02-11T06:37:40.200Z,-3.54
2023-02-11T06:40:07.551Z,-3.55
2023-02-11T06:42:38.808Z,-3.52
2023-02-11T06:45:06.287Z,-3.57
2023-02-11T06:47:33.534Z,-3.55
2023-02-11T06:50:00.389Z,-3.48
2023-02-11T06:52:27.177Z,-3.43
2023-02-11T06:54:54.445Z,-3.37
2023-02-11T06:57:21.457Z,-3.30
2023-02-11T06:59:48.324Z,-3.18
2023-02-11T07:02:20.631Z,-3.05
2023-02-11T07:04:48.019Z,-2.93
2023-02-11T07:07:14.819Z,-2.86
2023-02-11T07:09:41.951Z,-2.73
2023-02-11T07:12:10.660Z,-2.61
2023-02-11T07:14:37.645Z,-2.56
2023-02-11T07:17:05.333Z,-2.51
2023-02-11T07:19:35.108Z,-2.48
2023-02-11T07:22:01.870Z,-2.51
2023-02-11T07:24:28.599Z,-2.65
2023-02-11T07:26:55.321Z,-2.50
2023-02-11T07:29:22.719Z,-2.41
2023-02-11T07:32:06.800Z,-2.31
2023-02-11T07:34:36.679Z,-2.28
2023-02-11T07:37:03.494Z,-2.21
2023-02-11T07:39:30.438Z,-2.16
2023-02-11T07:41:59.746Z,-2.23
2023-02-11T07:44:27.533Z,-2.18
2023-02-11T07:46:54.383Z,-2.20
2023-02-11T07:49:21.133Z,-2.20
2023-02-11T07:51:49.176Z,-2.19
2023-02-11T07:54:15.986Z,-2.13
2023-02-11T07:56:43.212Z,-2.14
2023-02-11T07:59:11.544Z,-1.94
2023-02-11T08:01:38.932Z,-1.75
2023-02-11T08:04:05.753Z,-1.60
2023-02-11T08:06:34.459Z,-1.53
2023-02-11T08:09:09.345Z,-1.65
2023-02-11T08:11:36.300Z,-1.61
2023-02-11T08:14:03.185Z,-1.56
2023-02-11T08:16:34.502Z,-1.56
2023-02-11T08:19:05.345Z,-1.55
2023-02-11T08:21:32.078Z,-1.37
2023-02-11T08:23:59.113Z,-1.10
2023-02-11T08:26:29.595Z,-0.94
2023-02-11T08:28:57.630Z,-0.65
2023-02-11T08:31:31.384Z,-0.52
2023-02-11T08:33:58.255Z,-0.41
2023-02-11T08:36:28.551Z,-0.28
2023-02-11T08:39:08.613Z,-0.16
2023-02-11T08:41:43.682Z,-0.07
2023-02-11T08:44:10.763Z,0.01
2023-02-11T08:46:37.682Z,0.12
2023-02-11T08:49:04.995Z,0.25
2023-02-11T08:51:32.390Z,0.48
2023-02-11T08:54:00.827Z,0.78
2023-02-11T08:56:28.742Z,1.09
2023-02-11T08:58:57.590Z,1.35
2023-02-11T09:01:27.131Z,1.38
2023-02-11T09:03:54.826Z,1.41
2023-02-11T09:06:22.618Z,1.56
2023-02-11T09:08:51.408Z,1.63
2023-02-11T09:11:21.872Z,1.67
2023-02-11T09:13:48.598Z,1.68
2023-02-11T09:16:23.012Z,1.81
2023-02-11T09:18:50.599Z,2.11
2023-02-11T09:21:19.390Z,2.08
2023-02-11T09:23:47.912Z,1.84
2023-02-11T09:26:26.060Z,1.71
2023-02-11T09:28:53.472Z,1.63
2023-02-11T09:31:22.644Z,1.47
2023-02-11T09:33:52.068Z,1.46
2023-02-11T09:36:24.771Z,1.58
2023-02-11T09:38:52.452Z,1.75
2023-02-11T09:41:22.168Z,1.91
2023-02-11T09:43:51.699Z,2.11
2023-02-11T09:46:20.068Z,2.22
2023-02-11T09:48:49.212Z,2.34
2023-02-11T09:51:34.370Z,2.49
2023-02-11T09:54:08.026Z,2.58
2023-02-11T09:56:34.857Z,2.61
2023-02-11T09:59:01.567Z,2.73
2023-02-11T10:01:50.248Z,2.95
2023-02-11T10:04:29.354Z,3.12
2023-02-11T10:07:14.432Z,3.31
2023-02-11T10:10:07.840Z,3.57
2023-02-11T10:12:34.499Z,3.82
2023-02-11T10:15:04.107Z,3.81
2023-02-11T10:17:49.725Z,3.91
2023-02-11T10:20:38.607Z,4.04
2023-02-11T10:23:35.407Z,4.35
2023-02-11T10:26:02.781Z,4.40
2023-02-11T10:28:29.730Z,4.47
2023-02-11T10:31:35.777Z,4.67
2023-02-11T10:34:11.177Z,4.65
2023-02-11T10:36:41.353Z,4.74
2023-02-11T10:39:21.756Z,4.90
2023-02-11T10:41:56.460Z,5.02
2023-02-11T10:44:31.648Z,5.00
2023-02-11T10:47:05.327Z,5.15
2023-02-11T10:49:38.161Z,5.54
2023-02-11T10:52:34.532Z,5.62
2023-02-11T10:55:24.140Z,5.82
2023-02-11T10:57:58.983Z,5.79
2023-02-11T11:00:42.443Z,6.02
2023-02-11T11:03:25.212Z,5.93
2023-02-11T11:06:00.141Z,6.11
2023-02-11T11:08:50.222Z,6.27
2023-02-11T11:11:22.993Z,6.40
2023-02-11T11:13:52.718Z,6.51
2023-02-11T11:16:30.037Z,6.68
2023-02-11T11:19:09.028Z,6.85
2023-02-11T11:21:48.042Z,6.81
2023-02-11T11:24:20.180Z,6.99
2023-02-11T11:26:53.101Z,6.97
2023-02-11T11:29:30.492Z,7.17
2023-02-11T11:32:05.488Z,7.29
2023-02-11T11:34:33.880Z,7.28
2023-02-11T11:37:10.048Z,7.16
2023-02-11T11:39:36.925Z,7.28
2023-02-11T11:42:23.888Z,7.35
2023-02-11T11:45:24.870Z,7.36
2023-02-11T11:48:05.152Z,7.36
2023-02-11T11:50:53.068Z,7.63
2023-02-11T11:54:00.146Z,7.71
2023-02-11T11:56:32.052Z,7.81
2023-02-11T11:59:03.699Z,7.73
2023-02-11T12:01:44.624Z,7.59
2023-02-11T12:04:33.221Z,7.77
2023-02-11T12:07:12.628Z,7.87
2023-02-11T12:09:54.127Z,7.84
2023-02-11T12:12:39.065Z,7.84
2023-02-11T12:15:28.555Z,7.97
2023-02-11T12:22:05.608Z,8.09
2023-02-11T12:25:00.224Z,8.39
2023-02-11T12:27:41.306Z,8.40
2023-02-11T12:30:30.204Z,8.66
2023-02-11T12:33:08.476Z,8.74
2023-02-11T12:35:53.581Z,8.77
2023-02-11T12:38:50.416Z,8.85
2023-02-11T12:41:45.251Z,8.95
2023-02-11T12:44:32.397Z,9.03
2023-02-11T12:47:12.912Z,9.09
2023-02-11T12:49:45.752Z,9.09
2023-02-11T12:52:23.550Z,9.16
2023-02-11T12:54:56.144Z,9.52
2023-02-11T12:57:30.129Z,9.53
2023-02-11T13:00:07.536Z,9.61
2023-02-11T13:02:34.335Z,9.70
2023-02-11T13:05:29.480Z,9.77
2023-02-11T13:08:09.012Z,9.96
2023-02-11T13:10:39.422Z,10.07
2023-02-11T13:13:19.581Z,9.86
2023-02-11T13:16:08.289Z,9.95
2023-02-11T13:18:53.748Z,9.91
2023-02-11T13:21:38.223Z,10.16
2023-02-11T13:24:13.254Z,9.97
2023-02-11T13:26:59.221Z,9.88
2023-02-11T13:29:56.415Z,9.70
2023-02-11T13:32:23.269Z,9.57
2023-02-11T13:34:52.949Z,9.68
2023-02-11T13:37:32.721Z,9.70
2023-02-11T13:40:20.025Z,9.90
2023-02-11T13:43:01.570Z,10.05
2023-02-11T13:45:34.732Z,10.05
2023-02-11T13:48:05.630Z,10.08
2023-02-11T13:51:13.017Z,10.09
2023-02-11T13:53:47.953Z,10.03
2023-02-11T13:56:31.139Z,10.16
2023-02-11T13:59:01.983Z,10.15
2023-02-11T14:02:07.430Z,10.09
2023-02-11T14:04:53.060Z,9.97
2023-02-11T14:07:52.385Z,9.70
2023-02-11T14:10:43.944Z,9.66
2023-02-11T14:13:19.648Z,9.65
2023-02-11T14:15:46.838Z,9.52
2023-02-11T14:18:44.828Z,9.47
2023-02-11T14:21:19.790Z,9.17
2023-02-11T14:23:47.502Z,9.03
2023-02-11T14:26:20.948Z,8.72
2023-02-11T14:29:15.253Z,8.47
2023-02-11T14:31:54.227Z,8.26
2023-02-11T14:34:36.324Z,8.06
2023-02-11T14:37:12.063Z,7.94
2023-02-11T14:39:52.799Z,7.94
2023-02-11T14:42:22.631Z,7.84
2023-02-11T14:44:51.517Z,7.66
2023-02-11T14:47:27.309Z,7.60
2023-02-11T14:49:54.685Z,7.34
2023-02-11T14:52:30.762Z,6.95
2023-02-11T14:55:14.725Z,6.54
2023-02-11T14:57:49.498Z,6.29
2023-02-11T15:00:21.761Z,6.33
2023-02-11T15:02:49.061Z,6.32
2023-02-11T15:05:32.316Z,6.04
2023-02-11T15:08:02.967Z,5.91
2023-02-11T15:10:55.457Z,5.60
2023-02-11T15:13:27.404Z,5.37
2023-02-11T15:15:57.912Z,5.15
2023-02-11T15:18:35.566Z,4.94
2023-02-11T15:21:02.685Z,4.85
2023-02-11T15:23:31.280Z,4.52
2023-02-11T15:26:04.070Z,4.34
2023-02-11T15:28:34.204Z,4.14
2023-02-11T15:31:05.213Z,4.19
2023-02-11T15:33:33.040Z,4.10
2023-02-11T15:36:02.940Z,4.01
2023-02-11T15:38:30.599Z,3.95
2023-02-11T15:41:00.953Z,3.84
2023-02-11T15:43:48.712Z,3.86
2023-02-11T15:46:23.634Z,3.75
2023-02-11T15:48:55.226Z,3.63
2023-02-11T15:51:37.800Z,3.54
2023-02-11T15:54:21.012Z,3.47
2023-02-11T15:56:51.188Z,3.34
2023-02-11T15:59:40.584Z,3.30
2023-02-11T16:02:16.867Z,3.23
2023-02-11T16:05:43.276Z,3.15
2023-02-11T16:08:29.994Z,3.10
2023-02-11T16:11:03.455Z,3.05
2023-02-11T16:13:37.017Z,3.04
2023-02-11T16:16:17.675Z,2.97
2023-02-11T16:19:04.629Z,2.98
2023-02-11T16:21:39.383Z,2.91
2023-02-11T16:24:20.001Z,2.89
2023-02-11T16:26:52.878Z,2.83
2023-02-11T16:29:26.063Z,2.76
2023-02-11T16:32:20.733Z,2.66
2023-02-11T16:34:47.773Z,2.59
2023-02-11T16:37:14.737Z,2.47
2023-02-11T16:39:42.916Z,2.40
2023-02-11T16:42:12.639Z,2.29
2023-02-11T16:44:41.790Z,2.19
2023-02-11T16:47:20.930Z,2.04
2023-02-11T16:49:55.633Z,1.93
2023-02-11T16:52:25.340Z,1.81
2023-02-11T16:54:53.253Z,1.68
2023-02-11T16:57:24.181Z,1.61
2023-02-11T16:59:55.658Z,1.55
2023-02-11T17:02:32.786Z,1.59
2023-02-11T17:05:07.829Z,1.49
2023-02-11T17:07:41.825Z,1.40
2023-02-11T17:10:20.037Z,1.21
2023-02-11T17:12:52.539Z,1.09
2023-02-11T17:15:26.605Z,1.04
2023-02-11T17:18:03.792Z,1.00
2023-02-11T17:20:40.747Z,0.94
2023-02-11T17:23:09.851Z,0.89
2023-02-11T17:25:42.631Z,0.78
2023-02-11T17:28:26.219Z,0.74
2023-02-11T17:30:56.001Z,0.67
2023-02-11T17:33:25.286Z,0.57
2023-02-11T17:35:54.291Z,0.48
2023-02-11T17:38:22.535Z,0.39
2023-02-11T17:41:00.875Z,0.39
2023-02-11T17:43:30.861Z,0.46
2023-02-11T17:45:59.659Z,0.35
2023-02-11T17:48:26.652Z,0.35
2023-02-11T17:50:54.461Z,0.38
2023-02-11T17:53:21.157Z,0.27
2023-02-11T17:55:48.108Z,0.17
2023-02-11T17:58:14.975Z,0.16
2023-02-11T18:00:43.190Z,0.19
2023-02-11T18:03:10.389Z,0.24
2023-02-11T18:05:38.121Z,0.22
2023-02-11T18:08:07.895Z,0.29
2023-02-11T18:10:34.861Z,0.35
2023-02-11T18:13:01.769Z,0.26
2023-02-11T18:15:30.392Z,0.17
2023-02-11T18:18:00.108Z,0.10
2023-02-11T18:20:26.984Z,-0.02
2023-02-11T18:22:53.977Z,-0.03
2023-02-11T18:25:21.221Z,-0.07
2023-02-11T18:27:49.378Z,-0.20
2023-02-11T18:30:20.594Z,-0.28
2023-02-11T18:32:48.047Z,-0.25
2023-02-11T18:35:15.864Z,-0.23
2023-02-11T18:37:43.184Z,-0.30
2023-02-11T18:40:11.397Z,-0.37
2023-02-11T18:42:41.505Z,-0.30
2023-02-11T18:45:13.331Z,-0.33
2023-02-11T18:47:40.188Z,-0.42
2023-02-11T18:50:11.262Z,-0.62
2023-02-11T18:52:38.971Z,-0.72
2023-02-11T18:55:07.850Z,-0.81
2023-02-11T18:57:36.210Z,-0.82
2023-02-11T19:00:07.679Z,-0.81
2023-02-11T19:02:35.371Z,-0.85
2023-02-11T19:05:06.691Z,-0.83
2023-02-11T19:07:33.508Z,-0.87
2023-02-11T19:10:00.253Z,-0.87
2023-02-11T19:12:28.626Z,-0.85
2023-02-11T19:14:59.763Z,-0.85
2023-02-11T19:17:28.569Z,-0.86
2023-02-11T19:20:00.248Z,-0.88
2023-02-11T19:22:29.740Z,-0.82
2023-02-11T19:25:07.974Z,-0.80
2023-02-11T19:27:39.795Z,-0.89
2023-02-11T19:30:12.671Z,-1.02
2023-02-11T19:32:48.165Z,-1.13
2023-02-11T19:35:17.320Z,-1.12
2023-02-11T19:37:53.625Z,-1.12
2023-02-11T19:41:07.240Z,-1.21
2023-02-11T19:43:46.912Z,-1.14
2023-02-11T19:46:13.688Z,-1.25
2023-02-11T19:48:43.013Z,-1.27
2023-02-11T19:51:13.406Z,-1.29
2023-02-11T19:53:41.317Z,-1.30
2023-02-11T19:56:11.527Z,-1.33
2023-02-11T19:58:40.400Z,-1.36
2023-02-11T20:01:19.712Z,-1.35
2023-02-11T20:06:38.425Z,-1.43
2023-02-11T20:09:13.463Z,-1.44
2023-02-11T20:11:44.309Z,-1.42
2023-02-11T20:14:15.906Z,-1.49
2023-02-11T20:16:49.187Z,-1.48
2023-02-11T20:19:20.364Z,-1.52
2023-02-11T20:21:52.386Z,-1.50
2023-02-11T20:24:21.524Z,-1.57
2023-02-11T20:26:51.259Z,-1.49
2023-02-11T20:29:21.375Z,-1.45
2023-02-11T20:31:50.836Z,-1.42
2023-02-11T20:34:22.073Z,-1.45
2023-02-11T20:36:55.034Z,-1.48
2023-02-11T20:39:30.333Z,-1.40
2023-02-11T20:42:06.661Z,-1.38
2023-02-11T20:44:37.054Z,-1.47
2023-02-11T20:47:09.636Z,-1.48
2023-02-11T20:49:41.855Z,-1.50
2023-02-11T20:52:18.338Z,-1.47
2023-02-11T20:55:07.092Z,-1.44
2023-02-11T20:57:35.449Z,-1.43
2023-02-11T21:00:06.824Z,-1.44
2023-02-11T21:02:39.160Z,-1.42
2023-02-11T21:05:07.373Z,-1.47
2023-02-11T21:07:36.141Z,-1.54
2023-02-11T21:10:06.783Z,-1.54
2023-02-11T21:12:33.639Z,-1.50
2023-02-11T21:15:05.016Z,-1.41
2023-02-11T21:17:32.572Z,-1.38
2023-02-11T21:20:01.723Z,-1.32
2023-02-11T21:22:29.642Z,-1.26
2023-02-11T21:24:58.941Z,-1.35
2023-02-11T21:27:33.049Z,-1.37
2023-02-11T21:30:01.820Z,-1.40
2023-02-11T21:32:38.597Z,-1.42
2023-02-11T21:35:10.754Z,-1.54
2023-02-11T21:37:38.020Z,-1.54
2023-02-11T21:40:12.212Z,-1.53
2023-02-11T21:42:40.352Z,-1.55
2023-02-11T21:45:08.630Z,-1.44
2023-02-11T21:47:38.812Z,-1.41
2023-02-11T21:50:07.352Z,-1.48
2023-02-11T21:52:34.462Z,-1.49
2023-02-11T21:55:02.294Z,-1.41
2023-02-11T21:57:29.958Z,-1.40
2023-02-11T21:59:56.966Z,-1.38
2023-02-11T22:02:24.296Z,-1.45
2023-02-11T22:04:51.211Z,-1.39
2023-02-11T22:07:20.667Z,-1.31
2023-02-11T22:09:47.662Z,-1.18
2023-02-11T22:12:18.914Z,-1.09
2023-02-11T22:14:47.116Z,-1.03
2023-02-11T22:17:17.781Z,-0.89
2023-02-11T22:19:44.779Z,-0.89
2023-02-11T22:22:13.946Z,-0.86
2023-02-11T22:24:41.713Z,-0.79
2023-02-11T22:27:08.376Z,-0.77
2023-02-11T22:29:35.024Z,-0.58
2023-02-11T22:32:02.050Z,-0.56
2023-02-11T22:34:28.805Z,-0.49
2023-02-11T22:36:55.677Z,-0.41
2023-02-11T22:39:22.442Z,-0.35
2023-02-11T22:41:49.801Z,-0.33
2023-02-11T22:44:17.273Z,-0.20
2023-02-11T22:46:44.299Z,-0.10
2023-02-11T22:49:14.244Z,-0.13
2023-02-11T22:51:44.496Z,-0.15
2023-02-11T22:54:16.676Z,-0.16
2023-02-11T22:56:44.320Z,-0.16
2023-02-11T22:59:13.161Z,-0.14
2023-02-11T23:01:40.764Z,-0.09
2023-02-11T23:04:10.627Z,-0.00
2023-02-11T23:06:37.388Z,0.10
2023-02-11T23:09:05.288Z,0.13
2023-02-11T23:11:33.013Z,0.02
2023-02-11T23:14:01.309Z,0.09
2023-02-11T23:16:31.813Z,0.09
2023-02-11T23:19:00.429Z,0.12
2023-02-11T23:21:30.971Z,0.17
2023-02-11T23:24:04.561Z,0.20
2023-02-11T23:26:31.613Z,0.27
2023-02-11T23:28:59.537Z,0.38
2023-02-11T23:31:28.090Z,0.35
2023-02-11T23:33:55.139Z,0.36
2023-02-11T23:36:22.855Z,0.40
2023-02-11T23:38:49.890Z,0.40
2023-02-11T23:41:18.092Z,0.38
2023-02-11T23:43:50.749Z,0.50
2023-02-11T23:46:18.028Z,0.54
2023-02-11T23:48:44.735Z,0.56
2023-02-11T23:51:11.539Z,0.58
2023-02-11T23:53:39.108Z,0.69
2023-02-11T23:56:11.806Z,0.69
2023-02-11T23:58:38.942Z,0.68
